Knob Lick, Missouri
Current Conditions -  °F | °C
As of 3:15 PM on Sunday 23 Nov 2014 (Local Time) from KFAM Reporting Station
Overcast Overcast  
Wind Chill: 55°   Ceiling: 600
Heat Index: 55°   Visibility: 9mi
Dew Point: 54°   Wind: 6mph
Humidity: 94%   Direction: 110°ESE
Pressure: 29.36"   Gusts: NA
Location:  37.68°N, 90.37°W
Report Text: KFAM 232115Z AUTO 11005KT 9SM OVC006 13/12 A2936 RMK AO1 P0002
Loading
Personal Weather Stations






























Interactive Weather Map New forecast layout! Learn more

10-Day Weather Forecast

Advertisements
Track Severe Weather on mobile